Terminal Aerodrome Forecast
Issued by NWS

Home | Current Version | Previous Version | Graphics & Text | Print | Product List | Glossary On
Versions: 1 2 3 4 5 6 7 8 9 10 11 12 13 14 15 16 17 18 19 20 21
867
FTUS43 KABR 231723
TAFPIR
TAF
KPIR 231723Z 2318/2418 17011KT P6SM SCT020
      TEMPO 2318/2321 BKN020
     FM232100 07009KT P6SM BKN015
     FM240200 01012KT P6SM VCSH OVC025
     FM241500 36012G19KT P6SM OVC015=

USA.gov is the U.S. government's official web portal to all federal, state and local government web resources and services.